sensor_id;sensor_type;location;lat;lon;timestamp;P1;durP1;ratioP1;P2;durP2;ratioP2
77415;SDS011;66489;49.230;8.520;2023-04-24T00:00:44;3.55;;;2.00;;
77415;SDS011;66489;49.230;8.520;2023-04-24T00:03:11;3.30;;;2.20;;
77415;SDS011;66489;49.230;8.520;2023-04-24T00:05:39;4.15;;;2.05;;
77415;SDS011;66489;49.230;8.520;2023-04-24T00:08:06;4.50;;;2.35;;
77415;SDS011;66489;49.230;8.520;2023-04-24T00:10:33;3.45;;;2.20;;
77415;SDS011;66489;49.230;8.520;2023-04-24T00:12:59;4.72;;;2.20;;
77415;SDS011;66489;49.230;8.520;2023-04-24T00:15:26;4.25;;;2.38;;
77415;SDS011;66489;49.230;8.520;2023-04-24T00:17:52;3.75;;;2.00;;
77415;SDS011;66489;49.230;8.520;2023-04-24T00:20:19;3.75;;;2.13;;
77415;SDS011;66489;49.230;8.520;2023-04-24T00:22:47;4.10;;;2.55;;
77415;SDS011;66489;49.230;8.520;2023-04-24T00:25:13;3.63;;;2.15;;
77415;SDS011;66489;49.230;8.520;2023-04-24T00:27:40;3.60;;;2.30;;
77415;SDS011;66489;49.230;8.520;2023-04-24T00:30:06;4.22;;;2.25;;
77415;SDS011;66489;49.230;8.520;2023-04-24T00:32:33;4.82;;;2.50;;
77415;SDS011;66489;49.230;8.520;2023-04-24T00:35:00;3.83;;;2.20;;
77415;SDS011;66489;49.230;8.520;2023-04-24T00:37:26;6.07;;;2.30;;
77415;SDS011;66489;49.230;8.520;2023-04-24T00:39:53;5.22;;;2.47;;
77415;SDS011;66489;49.230;8.520;2023-04-24T00:42:20;3.25;;;2.00;;
77415;SDS011;66489;49.230;8.520;2023-04-24T00:44:46;4.45;;;2.20;;
77415;SDS011;66489;49.230;8.520;2023-04-24T00:47:13;4.57;;;2.22;;
77415;SDS011;66489;49.230;8.520;2023-04-24T00:49:40;4.93;;;2.30;;
77415;SDS011;66489;49.230;8.520;2023-04-24T00:52:07;3.83;;;2.20;;
77415;SDS011;66489;49.230;8.520;2023-04-24T00:54:35;5.50;;;2.10;;
77415;SDS011;66489;49.230;8.520;2023-04-24T00:57:02;4.97;;;2.28;;
77415;SDS011;66489;49.230;8.520;2023-04-24T00:59:29;3.72;;;2.03;;
77415;SDS011;66489;49.230;8.520;2023-04-24T01:01:56;4.82;;;2.40;;
77415;SDS011;66489;49.230;8.520;2023-04-24T01:04:23;4.18;;;2.00;;
77415;SDS011;66489;49.230;8.520;2023-04-24T01:06:50;4.25;;;2.30;;
77415;SDS011;66489;49.230;8.520;2023-04-24T01:09:19;3.38;;;2.20;;
77415;SDS011;66489;49.230;8.520;2023-04-24T01:11:46;4.63;;;2.28;;
77415;SDS011;66489;49.230;8.520;2023-04-24T01:14:13;4.45;;;2.30;;
77415;SDS011;66489;49.230;8.520;2023-04-24T01:16:40;4.65;;;2.42;;
77415;SDS011;66489;49.230;8.520;2023-04-24T01:19:07;3.72;;;2.22;;
77415;SDS011;66489;49.230;8.520;2023-04-24T01:21:36;3.78;;;2.20;;
77415;SDS011;66489;49.230;8.520;2023-04-24T01:24:04;5.15;;;2.20;;
77415;SDS011;66489;49.230;8.520;2023-04-24T01:26:31;3.75;;;2.40;;
77415;SDS011;66489;49.230;8.520;2023-04-24T01:28:58;4.40;;;2.38;;
77415;SDS011;66489;49.230;8.520;2023-04-24T01:31:24;3.47;;;2.22;;
77415;SDS011;66489;49.230;8.520;2023-04-24T01:33:51;6.15;;;2.20;;
77415;SDS011;66489;49.230;8.520;2023-04-24T01:36:18;4.18;;;2.38;;
77415;SDS011;66489;49.230;8.520;2023-04-24T01:38:45;4.18;;;2.30;;
77415;SDS011;66489;49.230;8.520;2023-04-24T01:41:12;3.80;;;2.10;;
77415;SDS011;66489;49.230;8.520;2023-04-24T01:43:38;3.92;;;2.20;;
77415;SDS011;66489;49.230;8.520;2023-04-24T01:46:05;3.30;;;2.10;;
77415;SDS011;66489;49.230;8.520;2023-04-24T01:48:34;4.82;;;2.42;;
77415;SDS011;66489;49.230;8.520;2023-04-24T01:51:01;3.92;;;2.30;;
77415;SDS011;66489;49.230;8.520;2023-04-24T01:53:29;5.63;;;3.00;;
77415;SDS011;66489;49.230;8.520;2023-04-24T01:55:55;4.57;;;2.53;;
77415;SDS011;66489;49.230;8.520;2023-04-24T01:58:23;4.85;;;2.25;;
77415;SDS011;66489;49.230;8.520;2023-04-24T02:00:50;4.93;;;2.35;;
77415;SDS011;66489;49.230;8.520;2023-04-24T02:03:17;3.72;;;2.05;;
77415;SDS011;66489;49.230;8.520;2023-04-24T02:05:44;4.85;;;2.15;;
77415;SDS011;66489;49.230;8.520;2023-04-24T02:08:11;3.70;;;2.17;;
77415;SDS011;66489;49.230;8.520;2023-04-24T02:10:38;5.13;;;2.60;;
77415;SDS011;66489;49.230;8.520;2023-04-24T02:13:04;4.85;;;2.50;;
77415;SDS011;66489;49.230;8.520;2023-04-24T02:15:31;4.57;;;2.50;;
77415;SDS011;66489;49.230;8.520;2023-04-24T02:17:57;4.25;;;2.40;;
77415;SDS011;66489;49.230;8.520;2023-04-24T02:20:24;4.32;;;2.30;;
77415;SDS011;66489;49.230;8.520;2023-04-24T02:22:52;3.55;;;2.03;;
77415;SDS011;66489;49.230;8.520;2023-04-24T02:25:18;3.30;;;2.20;;
77415;SDS011;66489;49.230;8.520;2023-04-24T02:27:45;3.90;;;2.40;;
77415;SDS011;66489;49.230;8.520;2023-04-24T02:30:12;4.60;;;2.38;;
77415;SDS011;66489;49.230;8.520;2023-04-24T02:32:38;5.47;;;2.20;;
77415;SDS011;66489;49.230;8.520;2023-04-24T02:35:05;3.58;;;2.20;;
77415;SDS011;66489;49.230;8.520;2023-04-24T02:37:32;3.10;;;2.20;;
77415;SDS011;66489;49.230;8.520;2023-04-24T02:39:59;6.60;;;2.10;;
77415;SDS011;66489;49.230;8.520;2023-04-24T02:42:25;4.97;;;2.30;;
77415;SDS011;66489;49.230;8.520;2023-04-24T02:44:52;4.70;;;2.30;;
77415;SDS011;66489;49.230;8.520;2023-04-24T02:47:19;5.05;;;2.30;;
77415;SDS011;66489;49.230;8.520;2023-04-24T02:49:48;4.13;;;2.30;;
77415;SDS011;66489;49.230;8.520;2023-04-24T02:52:14;3.70;;;2.20;;
77415;SDS011;66489;49.230;8.520;2023-04-24T02:54:41;3.88;;;2.22;;
77415;SDS011;66489;49.230;8.520;2023-04-24T02:57:08;4.00;;;2.53;;
77415;SDS011;66489;49.230;8.520;2023-04-24T03:02:06;4.27;;;2.53;;
77415;SDS011;66489;49.230;8.520;2023-04-24T03:04:32;5.07;;;2.40;;
77415;SDS011;66489;49.230;8.520;2023-04-24T03:06:59;5.05;;;2.67;;
77415;SDS011;66489;49.230;8.520;2023-04-24T03:09:27;5.50;;;2.70;;
77415;SDS011;66489;49.230;8.520;2023-04-24T03:11:53;4.80;;;2.45;;
77415;SDS011;66489;49.230;8.520;2023-04-24T03:14:20;5.72;;;2.78;;
77415;SDS011;66489;49.230;8.520;2023-04-24T03:16:47;5.70;;;3.10;;
77415;SDS011;66489;49.230;8.520;2023-04-24T03:19:13;6.35;;;3.10;;
77415;SDS011;66489;49.230;8.520;2023-04-24T03:21:52;4.45;;;2.92;;
77415;SDS011;66489;49.230;8.520;2023-04-24T03:24:18;4.70;;;2.95;;
77415;SDS011;66489;49.230;8.520;2023-04-24T03:26:47;6.25;;;3.00;;
77415;SDS011;66489;49.230;8.520;2023-04-24T03:29:24;5.43;;;2.97;;
77415;SDS011;66489;49.230;8.520;2023-04-24T03:31:55;5.70;;;3.28;;
77415;SDS011;66489;49.230;8.520;2023-04-24T03:34:22;6.25;;;3.33;;
77415;SDS011;66489;49.230;8.520;2023-04-24T03:36:48;5.13;;;3.65;;
77415;SDS011;66489;49.230;8.520;2023-04-24T03:39:15;6.30;;;3.90;;
77415;SDS011;66489;49.230;8.520;2023-04-24T03:41:49;6.90;;;4.10;;
77415;SDS011;66489;49.230;8.520;2023-04-24T03:44:21;5.82;;;4.30;;
77415;SDS011;66489;49.230;8.520;2023-04-24T03:46:47;7.65;;;4.55;;
77415;SDS011;66489;49.230;8.520;2023-04-24T03:49:14;7.90;;;4.88;;
77415;SDS011;66489;49.230;8.520;2023-04-24T03:51:43;7.60;;;4.10;;
77415;SDS011;66489;49.230;8.520;2023-04-24T03:54:22;6.45;;;3.83;;
77415;SDS011;66489;49.230;8.520;2023-04-24T03:56:50;5.70;;;3.60;;
77415;SDS011;66489;49.230;8.520;2023-04-24T03:59:17;5.90;;;3.92;;
77415;SDS011;66489;49.230;8.520;2023-04-24T04:01:49;6.97;;;4.90;;
77415;SDS011;66489;49.230;8.520;2023-04-24T04:04:16;6.95;;;4.88;;
77415;SDS011;66489;49.230;8.520;2023-04-24T04:06:44;5.93;;;4.40;;
77415;SDS011;66489;49.230;8.520;2023-04-24T04:09:11;6.25;;;4.00;;
77415;SDS011;66489;49.230;8.520;2023-04-24T04:11:37;6.45;;;3.70;;
77415;SDS011;66489;49.230;8.520;2023-04-24T04:14:04;5.35;;;3.70;;
77415;SDS011;66489;49.230;8.520;2023-04-24T04:16:33;7.20;;;3.70;;
77415;SDS011;66489;49.230;8.520;2023-04-24T04:19:02;7.40;;;3.33;;
77415;SDS011;66489;49.230;8.520;2023-04-24T04:21:29;6.03;;;3.78;;
77415;SDS011;66489;49.230;8.520;2023-04-24T04:24:08;5.82;;;3.67;;
77415;SDS011;66489;49.230;8.520;2023-04-24T04:26:40;5.70;;;3.70;;
77415;SDS011;66489;49.230;8.520;2023-04-24T04:29:09;4.93;;;3.67;;
77415;SDS011;66489;49.230;8.520;2023-04-24T04:31:40;5.90;;;4.25;;
77415;SDS011;66489;49.230;8.520;2023-04-24T04:34:10;6.50;;;4.00;;
77415;SDS011;66489;49.230;8.520;2023-04-24T04:36:39;5.50;;;4.07;;
77415;SDS011;66489;49.230;8.520;2023-04-24T04:39:29;5.13;;;3.80;;
77415;SDS011;66489;49.230;8.520;2023-04-24T04:42:00;5.82;;;3.70;;
77415;SDS011;66489;49.230;8.520;2023-04-24T04:44:33;5.53;;;3.40;;
77415;SDS011;66489;49.230;8.520;2023-04-24T04:47:05;6.03;;;3.92;;
77415;SDS011;66489;49.230;8.520;2023-04-24T04:49:34;4.80;;;3.90;;
77415;SDS011;66489;49.230;8.520;2023-04-24T04:52:02;5.63;;;4.07;;
77415;SDS011;66489;49.230;8.520;2023-04-24T04:54:30;7.47;;;3.80;;
77415;SDS011;66489;49.230;8.520;2023-04-24T04:56:57;5.30;;;4.20;;
77415;SDS011;66489;49.230;8.520;2023-04-24T04:59:24;5.43;;;4.00;;
77415;SDS011;66489;49.230;8.520;2023-04-24T05:01:57;5.78;;;4.25;;
77415;SDS011;66489;49.230;8.520;2023-04-24T05:04:23;7.68;;;4.30;;
77415;SDS011;66489;49.230;8.520;2023-04-24T05:06:51;5.22;;;4.30;;
77415;SDS011;66489;49.230;8.520;2023-04-24T05:09:18;6.50;;;4.50;;
77415;SDS011;66489;49.230;8.520;2023-04-24T05:11:54;5.63;;;4.40;;
77415;SDS011;66489;49.230;8.520;2023-04-24T05:14:22;6.47;;;4.60;;
77415;SDS011;66489;49.230;8.520;2023-04-24T05:16:49;5.63;;;4.40;;
77415;SDS011;66489;49.230;8.520;2023-04-24T05:21:45;5.55;;;4.30;;
77415;SDS011;66489;49.230;8.520;2023-04-24T05:24:12;6.70;;;5.00;;
77415;SDS011;66489;49.230;8.520;2023-04-24T05:26:44;5.97;;;4.78;;
77415;SDS011;66489;49.230;8.520;2023-04-24T05:29:13;6.78;;;4.75;;
77415;SDS011;66489;49.230;8.520;2023-04-24T05:31:41;6.47;;;4.85;;
77415;SDS011;66489;49.230;8.520;2023-04-24T05:34:07;8.32;;;4.80;;
77415;SDS011;66489;49.230;8.520;2023-04-24T05:36:39;8.77;;;4.85;;
77415;SDS011;66489;49.230;8.520;2023-04-24T05:39:05;6.30;;;4.60;;
77415;SDS011;66489;49.230;8.520;2023-04-24T05:41:34;6.63;;;4.50;;
77415;SDS011;66489;49.230;8.520;2023-04-24T05:44:01;6.15;;;4.80;;
77415;SDS011;66489;49.230;8.520;2023-04-24T05:46:27;6.30;;;4.60;;
77415;SDS011;66489;49.230;8.520;2023-04-24T05:48:55;5.75;;;4.47;;
77415;SDS011;66489;49.230;8.520;2023-04-24T05:51:21;5.90;;;4.70;;
77415;SDS011;66489;49.230;8.520;2023-04-24T05:53:48;6.03;;;4.60;;
77415;SDS011;66489;49.230;8.520;2023-04-24T05:56:15;6.47;;;4.60;;
77415;SDS011;66489;49.230;8.520;2023-04-24T05:58:42;5.68;;;4.68;;
77415;SDS011;66489;49.230;8.520;2023-04-24T06:01:08;6.03;;;4.80;;
77415;SDS011;66489;49.230;8.520;2023-04-24T06:03:37;5.50;;;4.53;;
77415;SDS011;66489;49.230;8.520;2023-04-24T06:06:05;5.40;;;4.47;;
77415;SDS011;66489;49.230;8.520;2023-04-24T06:08:34;7.13;;;4.50;;
77415;SDS011;66489;49.230;8.520;2023-04-24T06:11:03;6.50;;;4.30;;
77415;SDS011;66489;49.230;8.520;2023-04-24T06:13:31;7.78;;;3.97;;
77415;SDS011;66489;49.230;8.520;2023-04-24T06:16:16;5.88;;;4.13;;
77415;SDS011;66489;49.230;8.520;2023-04-24T06:18:49;5.35;;;4.30;;
77415;SDS011;66489;49.230;8.520;2023-04-24T06:21:18;7.13;;;4.30;;
77415;SDS011;66489;49.230;8.520;2023-04-24T06:23:44;8.07;;;4.25;;
77415;SDS011;66489;49.230;8.520;2023-04-24T06:26:13;8.35;;;4.57;;
77415;SDS011;66489;49.230;8.520;2023-04-24T06:28:40;5.03;;;4.13;;
77415;SDS011;66489;49.230;8.520;2023-04-24T06:31:07;6.25;;;4.60;;
77415;SDS011;66489;49.230;8.520;2023-04-24T06:33:33;5.57;;;4.25;;
77415;SDS011;66489;49.230;8.520;2023-04-24T06:36:00;5.30;;;4.43;;
77415;SDS011;66489;49.230;8.520;2023-04-24T06:38:27;5.30;;;4.47;;
77415;SDS011;66489;49.230;8.520;2023-04-24T06:40:55;5.15;;;4.20;;
77415;SDS011;66489;49.230;8.520;2023-04-24T06:43:22;6.15;;;4.20;;
77415;SDS011;66489;49.230;8.520;2023-04-24T06:45:49;6.07;;;4.03;;
77415;SDS011;66489;49.230;8.520;2023-04-24T06:48:16;6.13;;;4.03;;
77415;SDS011;66489;49.230;8.520;2023-04-24T06:50:43;5.35;;;4.07;;
77415;SDS011;66489;49.230;8.520;2023-04-24T06:53:09;5.55;;;3.88;;
77415;SDS011;66489;49.230;8.520;2023-04-24T06:55:37;4.95;;;4.00;;
77415;SDS011;66489;49.230;8.520;2023-04-24T06:58:03;5.85;;;4.45;;
77415;SDS011;66489;49.230;8.520;2023-04-24T07:00:30;5.53;;;3.97;;
77415;SDS011;66489;49.230;8.520;2023-04-24T07:02:56;5.72;;;4.20;;
77415;SDS011;66489;49.230;8.520;2023-04-24T07:05:24;5.80;;;4.32;;
77415;SDS011;66489;49.230;8.520;2023-04-24T07:07:50;4.97;;;4.07;;
77415;SDS011;66489;49.230;8.520;2023-04-24T07:10:17;5.07;;;3.85;;
77415;SDS011;66489;49.230;8.520;2023-04-24T07:12:44;5.90;;;4.07;;
77415;SDS011;66489;49.230;8.520;2023-04-24T07:15:11;6.50;;;3.95;;
77415;SDS011;66489;49.230;8.520;2023-04-24T07:17:38;4.43;;;3.20;;
77415;SDS011;66489;49.230;8.520;2023-04-24T07:20:05;4.50;;;3.35;;
77415;SDS011;66489;49.230;8.520;2023-04-24T07:22:33;4.05;;;3.20;;
77415;SDS011;66489;49.230;8.520;2023-04-24T07:25:00;4.65;;;3.20;;
77415;SDS011;66489;49.230;8.520;2023-04-24T07:27:27;5.18;;;3.20;;
77415;SDS011;66489;49.230;8.520;2023-04-24T07:29:54;4.07;;;3.20;;
77415;SDS011;66489;49.230;8.520;2023-04-24T07:32:20;5.28;;;3.70;;
77415;SDS011;66489;49.230;8.520;2023-04-24T07:34:47;4.63;;;3.50;;
77415;SDS011;66489;49.230;8.520;2023-04-24T07:37:13;6.18;;;3.88;;
77415;SDS011;66489;49.230;8.520;2023-04-24T07:39:40;5.07;;;3.58;;
77415;SDS011;66489;49.230;8.520;2023-04-24T07:42:07;4.90;;;3.50;;
77415;SDS011;66489;49.230;8.520;2023-04-24T07:44:33;4.78;;;3.40;;
77415;SDS011;66489;49.230;8.520;2023-04-24T07:47:00;4.13;;;3.50;;
77415;SDS011;66489;49.230;8.520;2023-04-24T07:49:26;4.78;;;3.63;;
77415;SDS011;66489;49.230;8.520;2023-04-24T07:51:54;4.57;;;3.35;;
77415;SDS011;66489;49.230;8.520;2023-04-24T07:54:20;5.38;;;3.50;;
77415;SDS011;66489;49.230;8.520;2023-04-24T07:56:47;4.25;;;3.30;;
77415;SDS011;66489;49.230;8.520;2023-04-24T07:59:14;4.55;;;3.53;;
77415;SDS011;66489;49.230;8.520;2023-04-24T08:01:41;4.95;;;3.53;;
77415;SDS011;66489;49.230;8.520;2023-04-24T08:04:07;4.88;;;3.55;;
77415;SDS011;66489;49.230;8.520;2023-04-24T08:06:34;4.45;;;3.70;;
77415;SDS011;66489;49.230;8.520;2023-04-24T08:09:01;7.10;;;3.88;;
77415;SDS011;66489;49.230;8.520;2023-04-24T08:11:28;5.88;;;4.30;;
77415;SDS011;66489;49.230;8.520;2023-04-24T08:13:54;4.80;;;4.10;;
77415;SDS011;66489;49.230;8.520;2023-04-24T08:16:21;5.28;;;4.10;;
77415;SDS011;66489;49.230;8.520;2023-04-24T08:18:50;4.50;;;3.70;;
77415;SDS011;66489;49.230;8.520;2023-04-24T08:21:16;6.03;;;4.22;;
77415;SDS011;66489;49.230;8.520;2023-04-24T08:23:45;5.03;;;4.18;;
77415;SDS011;66489;49.230;8.520;2023-04-24T08:26:12;5.20;;;3.90;;
77415;SDS011;66489;49.230;8.520;2023-04-24T08:28:39;4.50;;;3.70;;
77415;SDS011;66489;49.230;8.520;2023-04-24T08:31:05;5.68;;;3.72;;
77415;SDS011;66489;49.230;8.520;2023-04-24T08:33:32;5.47;;;3.97;;
77415;SDS011;66489;49.230;8.520;2023-04-24T08:36:04;4.55;;;3.90;;
77415;SDS011;66489;49.230;8.520;2023-04-24T08:38:32;5.00;;;3.90;;
77415;SDS011;66489;49.230;8.520;2023-04-24T08:41:00;6.50;;;4.07;;
77415;SDS011;66489;49.230;8.520;2023-04-24T08:43:27;5.10;;;3.88;;
77415;SDS011;66489;49.230;8.520;2023-04-24T08:45:55;4.40;;;3.80;;
77415;SDS011;66489;49.230;8.520;2023-04-24T08:48:22;4.68;;;3.70;;
77415;SDS011;66489;49.230;8.520;2023-04-24T08:50:57;6.75;;;3.88;;
77415;SDS011;66489;49.230;8.520;2023-04-24T08:53:24;5.93;;;3.80;;
77415;SDS011;66489;49.230;8.520;2023-04-24T08:55:51;5.10;;;3.88;;
77415;SDS011;66489;49.230;8.520;2023-04-24T08:58:18;4.57;;;3.50;;
77415;SDS011;66489;49.230;8.520;2023-04-24T09:00:45;5.10;;;3.80;;
77415;SDS011;66489;49.230;8.520;2023-04-24T09:03:14;6.68;;;3.63;;
77415;SDS011;66489;49.230;8.520;2023-04-24T09:05:43;5.28;;;3.70;;
77415;SDS011;66489;49.230;8.520;2023-04-24T09:10:40;5.55;;;3.53;;
77415;SDS011;66489;49.230;8.520;2023-04-24T09:13:07;8.13;;;3.90;;
77415;SDS011;66489;49.230;8.520;2023-04-24T09:15:35;4.03;;;3.60;;
77415;SDS011;66489;49.230;8.520;2023-04-24T09:18:02;4.22;;;3.70;;
77415;SDS011;66489;49.230;8.520;2023-04-24T09:20:30;4.82;;;3.88;;
77415;SDS011;66489;49.230;8.520;2023-04-24T09:22:57;6.53;;;3.85;;
77415;SDS011;66489;49.230;8.520;2023-04-24T09:25:31;5.65;;;4.03;;
77415;SDS011;66489;49.230;8.520;2023-04-24T09:28:02;4.82;;;3.90;;
77415;SDS011;66489;49.230;8.520;2023-04-24T09:30:29;6.38;;;4.05;;
77415;SDS011;66489;49.230;8.520;2023-04-24T09:33:12;6.10;;;3.80;;
77415;SDS011;66489;49.230;8.520;2023-04-24T09:35:40;7.88;;;4.45;;
77415;SDS011;66489;49.230;8.520;2023-04-24T09:38:09;4.72;;;3.97;;
77415;SDS011;66489;49.230;8.520;2023-04-24T09:40:36;6.38;;;4.00;;
77415;SDS011;66489;49.230;8.520;2023-04-24T09:43:09;4.82;;;3.80;;
77415;SDS011;66489;49.230;8.520;2023-04-24T09:45:37;6.90;;;4.30;;
77415;SDS011;66489;49.230;8.520;2023-04-24T09:48:05;5.32;;;4.40;;
77415;SDS011;66489;49.230;8.520;2023-04-24T09:50:36;5.20;;;4.40;;
77415;SDS011;66489;49.230;8.520;2023-04-24T09:53:03;6.30;;;4.20;;
77415;SDS011;66489;49.230;8.520;2023-04-24T09:55:38;5.03;;;4.20;;
77415;SDS011;66489;49.230;8.520;2023-04-24T09:58:07;5.47;;;3.90;;
77415;SDS011;66489;49.230;8.520;2023-04-24T10:00:34;5.22;;;4.20;;
77415;SDS011;66489;49.230;8.520;2023-04-24T10:03:01;5.32;;;4.20;;
77415;SDS011;66489;49.230;8.520;2023-04-24T10:05:31;6.35;;;4.35;;
77415;SDS011;66489;49.230;8.520;2023-04-24T10:08:05;7.60;;;4.30;;
77415;SDS011;66489;49.230;8.520;2023-04-24T10:10:34;6.82;;;4.50;;
77415;SDS011;66489;49.230;8.520;2023-04-24T10:13:04;6.88;;;4.30;;
77415;SDS011;66489;49.230;8.520;2023-04-24T10:15:31;6.32;;;4.72;;
77415;SDS011;66489;49.230;8.520;2023-04-24T10:17:58;5.30;;;4.25;;
77415;SDS011;66489;49.230;8.520;2023-04-24T10:20:26;5.75;;;4.40;;
77415;SDS011;66489;49.230;8.520;2023-04-24T10:22:57;6.68;;;4.63;;
77415;SDS011;66489;49.230;8.520;2023-04-24T10:25:25;6.95;;;4.80;;
77415;SDS011;66489;49.230;8.520;2023-04-24T10:27:53;5.75;;;4.47;;
77415;SDS011;66489;49.230;8.520;2023-04-24T10:30:23;5.60;;;4.85;;
77415;SDS011;66489;49.230;8.520;2023-04-24T10:32:50;6.47;;;5.10;;
77415;SDS011;66489;49.230;8.520;2023-04-24T10:35:17;6.30;;;4.93;;
77415;SDS011;66489;49.230;8.520;2023-04-24T10:37:45;5.95;;;4.85;;
77415;SDS011;66489;49.230;8.520;2023-04-24T10:40:16;6.75;;;4.57;;
77415;SDS011;66489;49.230;8.520;2023-04-24T10:42:48;6.45;;;4.70;;
77415;SDS011;66489;49.230;8.520;2023-04-24T10:45:18;5.68;;;4.40;;
77415;SDS011;66489;49.230;8.520;2023-04-24T10:50:19;8.30;;;4.88;;
77415;SDS011;66489;49.230;8.520;2023-04-24T10:52:46;6.32;;;4.75;;
77415;SDS011;66489;49.230;8.520;2023-04-24T10:55:14;6.15;;;4.78;;
77415;SDS011;66489;49.230;8.520;2023-04-24T10:58:03;12.55;;;4.80;;
77415;SDS011;66489;49.230;8.520;2023-04-24T11:00:30;8.32;;;4.95;;
77415;SDS011;66489;49.230;8.520;2023-04-24T11:02:57;7.65;;;4.60;;
77415;SDS011;66489;49.230;8.520;2023-04-24T11:05:48;6.28;;;4.78;;
77415;SDS011;66489;49.230;8.520;2023-04-24T11:08:23;6.30;;;4.80;;
77415;SDS011;66489;49.230;8.520;2023-04-24T11:19:06;7.15;;;5.30;;
77415;SDS011;66489;49.230;8.520;2023-04-24T11:37:38;6.88;;;5.28;;
77415;SDS011;66489;49.230;8.520;2023-04-24T11:40:09;6.53;;;5.60;;
77415;SDS011;66489;49.230;8.520;2023-04-24T11:42:41;7.70;;;5.88;;
77415;SDS011;66489;49.230;8.520;2023-04-24T11:45:09;6.50;;;5.68;;
77415;SDS011;66489;49.230;8.520;2023-04-24T11:47:37;8.80;;;5.80;;
77415;SDS011;66489;49.230;8.520;2023-04-24T11:50:05;6.20;;;5.25;;
77415;SDS011;66489;49.230;8.520;2023-04-24T11:52:36;7.63;;;4.82;;
77415;SDS011;66489;49.230;8.520;2023-04-24T11:55:06;6.55;;;5.32;;
77415;SDS011;66489;49.230;8.520;2023-04-24T11:57:33;6.95;;;5.30;;
77415;SDS011;66489;49.230;8.520;2023-04-24T12:00:01;7.40;;;5.47;;
77415;SDS011;66489;49.230;8.520;2023-04-24T12:02:37;7.28;;;6.13;;
77415;SDS011;66489;49.230;8.520;2023-04-24T12:05:05;7.05;;;4.90;;
77415;SDS011;66489;49.230;8.520;2023-04-24T12:07:40;8.05;;;5.32;;
77415;SDS011;66489;49.230;8.520;2023-04-24T12:10:09;8.85;;;5.43;;
77415;SDS011;66489;49.230;8.520;2023-04-24T12:12:56;7.78;;;5.45;;
77415;SDS011;66489;49.230;8.520;2023-04-24T12:15:23;6.50;;;5.20;;
77415;SDS011;66489;49.230;8.520;2023-04-24T12:17:51;5.72;;;4.85;;
77415;SDS011;66489;49.230;8.520;2023-04-24T12:20:25;6.07;;;4.80;;
77415;SDS011;66489;49.230;8.520;2023-04-24T12:22:56;6.85;;;5.10;;
77415;SDS011;66489;49.230;8.520;2023-04-24T12:25:25;7.93;;;5.30;;
77415;SDS011;66489;49.230;8.520;2023-04-24T12:27:53;6.78;;;4.50;;
77415;SDS011;66489;49.230;8.520;2023-04-24T12:30:21;5.68;;;4.50;;
77415;SDS011;66489;49.230;8.520;2023-04-24T12:32:56;5.57;;;4.85;;
77415;SDS011;66489;49.230;8.520;2023-04-24T12:35:25;7.72;;;4.78;;
77415;SDS011;66489;49.230;8.520;2023-04-24T12:37:55;7.00;;;5.10;;
77415;SDS011;66489;49.230;8.520;2023-04-24T12:40:22;7.43;;;5.10;;
77415;SDS011;66489;49.230;8.520;2023-04-24T12:42:51;6.78;;;4.75;;
77415;SDS011;66489;49.230;8.520;2023-04-24T12:45:18;6.53;;;4.90;;
77415;SDS011;66489;49.230;8.520;2023-04-24T12:47:50;8.30;;;4.90;;
77415;SDS011;66489;49.230;8.520;2023-04-24T12:50:16;5.50;;;4.82;;
77415;SDS011;66489;49.230;8.520;2023-04-24T12:52:43;8.10;;;5.10;;
77415;SDS011;66489;49.230;8.520;2023-04-24T12:55:10;6.68;;;5.00;;
77415;SDS011;66489;49.230;8.520;2023-04-24T12:57:38;7.32;;;5.03;;
77415;SDS011;66489;49.230;8.520;2023-04-24T13:00:06;5.70;;;4.68;;
77415;SDS011;66489;49.230;8.520;2023-04-24T13:02:34;6.38;;;4.80;;
77415;SDS011;66489;49.230;8.520;2023-04-24T13:05:02;8.02;;;5.20;;
77415;SDS011;66489;49.230;8.520;2023-04-24T13:07:28;6.35;;;5.07;;
77415;SDS011;66489;49.230;8.520;2023-04-24T13:09:55;5.97;;;5.18;;
77415;SDS011;66489;49.230;8.520;2023-04-24T13:12:25;6.57;;;5.25;;
77415;SDS011;66489;49.230;8.520;2023-04-24T13:14:52;6.55;;;4.65;;
77415;SDS011;66489;49.230;8.520;2023-04-24T13:17:19;6.05;;;4.75;;
77415;SDS011;66489;49.230;8.520;2023-04-24T13:19:46;6.20;;;4.55;;
77415;SDS011;66489;49.230;8.520;2023-04-24T13:22:13;6.97;;;5.20;;
77415;SDS011;66489;49.230;8.520;2023-04-24T13:24:39;5.90;;;4.80;;
77415;SDS011;66489;49.230;8.520;2023-04-24T13:27:07;7.40;;;4.97;;
77415;SDS011;66489;49.230;8.520;2023-04-24T13:29:34;7.72;;;4.40;;
77415;SDS011;66489;49.230;8.520;2023-04-24T13:32:04;5.95;;;4.20;;
77415;SDS011;66489;49.230;8.520;2023-04-24T13:34:31;5.20;;;4.53;;
77415;SDS011;66489;49.230;8.520;2023-04-24T13:36:58;5.25;;;4.43;;
77415;SDS011;66489;49.230;8.520;2023-04-24T13:39:25;7.70;;;5.00;;
77415;SDS011;66489;49.230;8.520;2023-04-24T13:41:52;6.05;;;4.70;;
77415;SDS011;66489;49.230;8.520;2023-04-24T13:44:20;6.28;;;4.47;;
77415;SDS011;66489;49.230;8.520;2023-04-24T13:46:48;6.85;;;4.85;;
77415;SDS011;66489;49.230;8.520;2023-04-24T13:49:16;9.02;;;5.20;;
77415;SDS011;66489;49.230;8.520;2023-04-24T13:51:42;6.85;;;4.80;;
77415;SDS011;66489;49.230;8.520;2023-04-24T13:54:09;6.50;;;4.43;;
77415;SDS011;66489;49.230;8.520;2023-04-24T13:56:36;5.82;;;4.50;;
77415;SDS011;66489;49.230;8.520;2023-04-24T13:59:02;6.05;;;4.43;;
77415;SDS011;66489;49.230;8.520;2023-04-24T14:01:29;6.32;;;4.43;;
77415;SDS011;66489;49.230;8.520;2023-04-24T14:03:56;5.88;;;4.47;;
77415;SDS011;66489;49.230;8.520;2023-04-24T14:06:23;6.90;;;4.68;;
77415;SDS011;66489;49.230;8.520;2023-04-24T14:08:50;6.55;;;4.95;;
77415;SDS011;66489;49.230;8.520;2023-04-24T14:11:17;7.50;;;4.80;;
77415;SDS011;66489;49.230;8.520;2023-04-24T14:13:44;6.43;;;4.70;;
77415;SDS011;66489;49.230;8.520;2023-04-24T14:16:12;7.20;;;4.97;;
77415;SDS011;66489;49.230;8.520;2023-04-24T14:18:39;6.82;;;4.85;;
77415;SDS011;66489;49.230;8.520;2023-04-24T14:21:06;8.70;;;5.28;;
77415;SDS011;66489;49.230;8.520;2023-04-24T14:23:33;6.78;;;5.20;;
77415;SDS011;66489;49.230;8.520;2023-04-24T14:25:59;6.60;;;5.07;;
77415;SDS011;66489;49.230;8.520;2023-04-24T14:28:26;8.05;;;5.53;;
77415;SDS011;66489;49.230;8.520;2023-04-24T14:30:52;8.05;;;5.85;;
77415;SDS011;66489;49.230;8.520;2023-04-24T14:33:19;7.30;;;5.40;;
77415;SDS011;66489;49.230;8.520;2023-04-24T14:35:46;7.10;;;5.20;;
77415;SDS011;66489;49.230;8.520;2023-04-24T14:38:14;5.55;;;4.68;;
77415;SDS011;66489;49.230;8.520;2023-04-24T14:40:41;5.93;;;4.65;;
77415;SDS011;66489;49.230;8.520;2023-04-24T14:43:11;7.82;;;5.10;;
77415;SDS011;66489;49.230;8.520;2023-04-24T14:45:37;6.30;;;4.65;;
77415;SDS011;66489;49.230;8.520;2023-04-24T14:48:04;5.15;;;4.65;;
77415;SDS011;66489;49.230;8.520;2023-04-24T14:50:35;6.40;;;4.55;;
77415;SDS011;66489;49.230;8.520;2023-04-24T14:53:01;6.00;;;4.70;;
77415;SDS011;66489;49.230;8.520;2023-04-24T14:55:31;5.65;;;4.60;;
77415;SDS011;66489;49.230;8.520;2023-04-24T14:57:59;5.60;;;4.35;;
77415;SDS011;66489;49.230;8.520;2023-04-24T15:00:29;5.68;;;4.80;;
77415;SDS011;66489;49.230;8.520;2023-04-24T15:03:00;6.30;;;4.68;;
77415;SDS011;66489;49.230;8.520;2023-04-24T15:05:27;6.30;;;4.78;;
77415;SDS011;66489;49.230;8.520;2023-04-24T15:07:54;7.03;;;5.10;;
77415;SDS011;66489;49.230;8.520;2023-04-24T15:10:21;7.47;;;5.35;;
77415;SDS011;66489;49.230;8.520;2023-04-24T15:12:49;8.07;;;5.70;;
77415;SDS011;66489;49.230;8.520;2023-04-24T15:15:15;6.55;;;5.25;;
77415;SDS011;66489;49.230;8.520;2023-04-24T15:17:42;9.85;;;5.90;;
77415;SDS011;66489;49.230;8.520;2023-04-24T15:20:09;7.32;;;5.75;;
77415;SDS011;66489;49.230;8.520;2023-04-24T15:22:35;9.50;;;5.75;;
77415;SDS011;66489;49.230;8.520;2023-04-24T15:25:02;8.82;;;5.50;;
77415;SDS011;66489;49.230;8.520;2023-04-24T15:27:40;9.38;;;5.55;;